Mount Vernon, Maine
Current Conditions -  °F | °C
As of 9:53 AM on Wednesday 22 Oct 2014 (Local Time) from KAUG Reporting Station
Light Rain Light Rain  
Wind Chill: 37°   Ceiling: 800
Heat Index: 44°   Visibility: 7mi
Dew Point: 42°   Wind: 16mph
Humidity: 93%   Direction: 20°NNE
Pressure: 30.18"   Gusts: NA
Location:  44.5°N, 69.99°W
Report Text: KAUG 221353Z AUTO 02014KT 7SM -RA BKN008 BKN013 OVC065 07/06 A3018 RMK AO2 CIG 006V012 SLP221 P0002 T00670056
Loading
Personal Weather Stations






























Interactive Weather Map
Tropical Storm Tracking
New forecast layout! Learn more

10-Day Weather Forecast

Advertisements
Track Severe Weather on mobile